createdAt,value
2023-03-06T00:00:42.891Z,7.45
2023-03-06T00:05:49.019Z,9.60
2023-03-06T00:10:52.350Z,9.27
2023-03-06T00:15:55.731Z,7.50
2023-03-06T00:21:00.465Z,6.40
2023-03-06T00:26:03.713Z,11.90
2023-03-06T00:31:07.253Z,6.55
2023-03-06T00:36:13.148Z,6.50
2023-03-06T00:41:17.519Z,9.10
2023-03-06T00:46:20.730Z,9.98
2023-03-06T00:51:25.289Z,9.15
2023-03-06T00:56:30.019Z,11.15
2023-03-06T01:01:33.307Z,11.87
2023-03-06T01:06:38.072Z,10.48
2023-03-06T01:11:41.410Z,13.57
2023-03-06T01:16:44.728Z,7.05
2023-03-06T01:21:49.432Z,11.35
2023-03-06T01:26:52.780Z,14.40
2023-03-06T01:31:57.019Z,11.88
2023-03-06T01:37:01.932Z,9.38
2023-03-06T01:42:05.827Z,14.37
2023-03-06T01:47:09.095Z,11.75
2023-03-06T01:52:19.088Z,12.52
2023-03-06T01:57:25.516Z,12.32
2023-03-06T02:02:29.937Z,10.57
2023-03-06T02:07:35.506Z,10.05
2023-03-06T02:12:42.315Z,9.50
2023-03-06T02:17:48.693Z,12.43
2023-03-06T02:22:58.143Z,9.23
2023-03-06T02:28:03.585Z,9.27
2023-03-06T02:33:07.547Z,9.50
2023-03-06T02:38:15.073Z,11.63
2023-03-06T02:43:24.061Z,10.43
2023-03-06T02:48:27.356Z,9.52
2023-03-06T02:53:31.106Z,12.13
2023-03-06T02:58:37.379Z,13.85
2023-03-06T03:03:40.909Z,10.20
2023-03-06T03:08:44.382Z,12.18
2023-03-06T03:13:50.173Z,9.90
2023-03-06T03:18:58.849Z,13.88
2023-03-06T03:24:03.469Z,11.45
2023-03-06T03:29:08.274Z,12.50
2023-03-06T03:34:11.935Z,14.70
2023-03-06T03:39:17.059Z,10.88
2023-03-06T03:44:21.922Z,14.48
2023-03-06T03:49:25.689Z,14.60
2023-03-06T03:54:29.998Z,16.17
2023-03-06T03:59:35.010Z,14.90
2023-03-06T04:04:51.467Z,16.67
2023-03-06T04:09:55.082Z,16.02
2023-03-06T04:15:00.468Z,17.08
2023-03-06T04:20:05.314Z,17.55
2023-03-06T04:30:16.579Z,14.35
2023-03-06T04:35:20.311Z,18.25
2023-03-06T04:40:35.127Z,12.73
2023-03-06T04:45:39.981Z,18.30
2023-03-06T04:50:43.314Z,13.37
2023-03-06T04:55:46.936Z,16.48
2023-03-06T05:00:51.691Z,20.10
2023-03-06T05:05:55.211Z,20.17
2023-03-06T05:11:00.351Z,18.45
2023-03-06T05:16:06.308Z,16.13
2023-03-06T05:21:10.283Z,21.25
2023-03-06T05:26:15.680Z,13.77
2023-03-06T05:31:20.386Z,19.98
2023-03-06T05:36:23.876Z,18.43
2023-03-06T05:41:27.143Z,16.98
2023-03-06T05:46:31.823Z,18.35
2023-03-06T05:51:35.051Z,17.63
2023-03-06T05:56:38.322Z,22.35
2023-03-06T06:01:42.967Z,19.27
2023-03-06T06:06:46.190Z,16.85
2023-03-06T06:11:51.838Z,20.42
2023-03-06T06:16:57.286Z,20.38
2023-03-06T06:22:02.611Z,18.80
2023-03-06T06:27:06.231Z,22.17
2023-03-06T06:32:11.215Z,16.63
2023-03-06T06:37:14.781Z,15.37
2023-03-06T06:42:32.957Z,15.82
2023-03-06T06:47:41.873Z,15.02
2023-03-06T06:52:45.400Z,16.77
2023-03-06T06:57:48.581Z,19.67
2023-03-06T07:02:53.130Z,19.55
2023-03-06T07:07:56.363Z,15.32
2023-03-06T07:13:00.111Z,15.13
2023-03-06T07:18:04.934Z,21.80
2023-03-06T07:23:09.677Z,18.38
2023-03-06T07:28:13.453Z,18.77
2023-03-06T07:33:18.777Z,16.50
2023-03-06T07:38:22.165Z,19.55
2023-03-06T07:43:25.783Z,20.00
2023-03-06T07:48:38.315Z,17.25
2023-03-06T07:53:42.040Z,17.88
2023-03-06T07:58:47.407Z,20.65
2023-03-06T08:03:52.481Z,18.33
2023-03-06T08:08:57.312Z,23.38
2023-03-06T08:14:01.954Z,18.40
2023-03-06T08:19:06.773Z,21.60
2023-03-06T08:24:10.166Z,17.60
2023-03-06T08:29:13.496Z,21.50
2023-03-06T08:34:20.338Z,20.15
2023-03-06T08:39:23.962Z,20.80
2023-03-06T08:44:27.214Z,24.63
2023-03-06T08:49:32.197Z,19.85
2023-03-06T08:54:36.720Z,25.70
2023-03-06T08:59:40.032Z,18.90
2023-03-06T09:04:44.926Z,21.30
2023-03-06T09:09:48.183Z,22.33
2023-03-06T09:14:51.414Z,20.52
2023-03-06T09:19:55.976Z,19.90
2023-03-06T09:24:59.486Z,17.73
2023-03-06T09:30:02.789Z,21.63
2023-03-06T09:35:08.225Z,23.40
2023-03-06T09:40:20.878Z,21.02
2023-03-06T09:45:24.428Z,17.42
2023-03-06T09:50:38.413Z,22.77
2023-03-06T09:55:44.168Z,20.42
2023-03-06T10:00:56.756Z,18.80
2023-03-06T10:06:06.203Z,21.63
2023-03-06T10:11:12.687Z,28.25
2023-03-06T10:16:27.165Z,26.98
2023-03-06T10:21:40.668Z,27.52
2023-03-06T10:26:49.871Z,23.38
2023-03-06T10:32:03.910Z,36.45
2023-03-06T10:37:19.067Z,30.35
2023-03-06T10:42:22.322Z,32.27
2023-03-06T10:47:31.499Z,26.98
2023-03-06T10:52:37.049Z,31.38
2023-03-06T11:02:45.456Z,27.25
2023-03-06T11:07:57.238Z,26.17
2023-03-06T11:13:02.826Z,26.33
2023-03-06T11:18:28.626Z,24.92
2023-03-06T11:23:44.594Z,28.30
2023-03-06T11:28:51.182Z,24.52
2023-03-06T11:33:58.223Z,25.02
2023-03-06T11:39:14.568Z,24.40
2023-03-06T11:44:26.900Z,24.50
2023-03-06T11:49:39.660Z,27.77
2023-03-06T11:54:44.557Z,23.85
2023-03-06T12:00:15.017Z,24.83
2023-03-06T12:05:33.846Z,24.48
2023-03-06T12:10:49.064Z,19.92
2023-03-06T12:16:22.976Z,22.38
2023-03-06T12:21:34.947Z,22.63
2023-03-06T12:26:58.269Z,20.38
2023-03-06T12:32:17.706Z,25.73
2023-03-06T12:37:26.161Z,17.58
2023-03-06T12:42:43.456Z,15.13
2023-03-06T12:47:49.350Z,14.55
2023-03-06T12:52:54.442Z,10.60
2023-03-06T12:58:36.834Z,8.80
2023-03-06T13:04:05.021Z,9.93
2023-03-06T13:09:23.678Z,10.15
2023-03-06T13:14:32.135Z,13.90
2023-03-06T13:19:36.493Z,13.52
2023-03-06T13:24:39.776Z,17.08
2023-03-06T13:30:21.938Z,17.98
2023-03-06T13:35:59.084Z,21.20
2023-03-06T13:41:34.995Z,18.65
2023-03-06T13:46:39.642Z,17.65
2023-03-06T13:51:59.065Z,19.83
2023-03-06T13:57:22.319Z,17.38
2023-03-06T14:02:41.904Z,19.55
2023-03-06T14:07:47.576Z,20.77
2023-03-06T14:13:04.819Z,18.02
2023-03-06T14:18:16.936Z,17.35
2023-03-06T14:23:29.927Z,22.85
2023-03-06T14:28:34.615Z,18.80
2023-03-06T14:33:44.301Z,15.67
2023-03-06T14:38:53.663Z,16.83
2023-03-06T14:44:16.683Z,17.70
2023-03-06T14:49:22.958Z,21.13
2023-03-06T14:54:30.290Z,19.25
2023-03-06T14:59:43.240Z,23.42
2023-03-06T15:04:50.220Z,19.42
2023-03-06T15:09:55.131Z,21.83
2023-03-06T15:15:01.687Z,19.23
2023-03-06T15:20:08.992Z,19.63
2023-03-06T15:25:26.819Z,20.63
2023-03-06T15:30:32.467Z,22.02
2023-03-06T15:40:41.728Z,21.80
2023-03-06T15:45:44.960Z,21.83
2023-03-06T15:50:49.603Z,23.00
2023-03-06T15:55:54.150Z,19.85
2023-03-06T16:00:57.546Z,22.58
2023-03-06T16:06:02.155Z,17.50
2023-03-06T16:11:05.749Z,15.60
2023-03-06T16:16:13.409Z,16.15
2023-03-06T16:21:18.050Z,13.73
2023-03-06T16:26:28.703Z,12.13
2023-03-06T16:31:32.130Z,12.73
2023-03-06T16:36:36.775Z,22.48
2023-03-06T16:41:40.062Z,20.42
2023-03-06T16:46:45.881Z,19.70
2023-03-06T16:51:51.255Z,21.98
2023-03-06T16:56:54.433Z,17.23
2023-03-06T17:01:57.731Z,20.13
2023-03-06T17:07:02.424Z,16.23
2023-03-06T17:12:05.932Z,18.40
2023-03-06T17:17:09.175Z,21.10
2023-03-06T17:22:13.804Z,20.17
2023-03-06T17:27:17.054Z,15.43
2023-03-06T17:32:20.382Z,19.90
2023-03-06T17:37:24.973Z,24.73
2023-03-06T17:42:28.487Z,19.15
2023-03-06T17:47:31.761Z,18.55
2023-03-06T17:52:37.507Z,15.52
2023-03-06T17:57:40.799Z,15.68
2023-03-06T18:02:45.357Z,10.10
2023-03-06T18:07:50.098Z,15.48
2023-03-06T18:12:53.556Z,17.00
2023-03-06T18:17:59.131Z,18.05
2023-03-06T18:28:07.078Z,14.52
2023-03-06T18:33:11.122Z,19.17
2023-03-06T18:38:15.834Z,18.63
2023-03-06T18:43:19.074Z,14.00
2023-03-06T18:48:22.627Z,15.25
2023-03-06T18:53:27.746Z,14.50
2023-03-06T18:58:31.337Z,13.98
2023-03-06T19:03:34.681Z,15.13
2023-03-06T19:08:40.453Z,13.95
2023-03-06T19:13:44.173Z,16.88
2023-03-06T19:18:47.659Z,15.75
2023-03-06T19:23:52.390Z,15.63
2023-03-06T19:28:55.728Z,15.43
2023-03-06T19:33:58.999Z,16.85
2023-03-06T19:39:06.019Z,15.18
2023-03-06T19:44:09.450Z,23.98
2023-03-06T19:49:17.951Z,17.63
2023-03-06T19:54:24.762Z,17.55
2023-03-06T19:59:27.954Z,21.17
2023-03-06T20:04:33.037Z,18.65
2023-03-06T20:09:37.896Z,17.85
2023-03-06T20:14:41.061Z,22.97
2023-03-06T20:19:44.486Z,16.45
2023-03-06T20:24:49.047Z,18.88
2023-03-06T20:29:52.202Z,16.10
2023-03-06T20:34:55.453Z,22.13
2023-03-06T20:40:00.209Z,24.13
2023-03-06T20:45:03.770Z,24.33
2023-03-06T20:50:08.361Z,20.20
2023-03-06T20:55:13.259Z,21.13
2023-03-06T21:00:17.237Z,17.50
2023-03-06T21:05:20.500Z,19.98
2023-03-06T21:10:25.297Z,21.38
2023-03-06T21:15:30.003Z,17.33
2023-03-06T21:20:33.500Z,20.83
2023-03-06T21:25:38.002Z,21.85
2023-03-06T21:30:41.353Z,21.67
2023-03-06T21:35:45.928Z,20.80
2023-03-06T21:40:50.953Z,19.07
2023-03-06T21:45:57.810Z,19.92
2023-03-06T21:51:08.879Z,28.38
2023-03-06T21:56:14.663Z,22.65
2023-03-06T22:01:20.870Z,24.52
2023-03-06T22:06:26.231Z,22.95
2023-03-06T22:11:34.743Z,32.65
2023-03-06T22:16:38.151Z,25.45
2023-03-06T22:21:41.435Z,24.83
2023-03-06T22:26:46.238Z,23.95
2023-03-06T22:31:49.633Z,24.60
2023-03-06T22:36:53.052Z,26.48
2023-03-06T22:41:58.456Z,24.90
2023-03-06T22:47:01.706Z,21.58
2023-03-06T22:52:15.093Z,25.00
2023-03-06T22:57:19.872Z,26.40
2023-03-06T23:02:23.425Z,25.63
2023-03-06T23:07:27.077Z,24.70
2023-03-06T23:12:38.349Z,22.98
2023-03-06T23:17:59.896Z,22.30
2023-03-06T23:23:22.568Z,25.13
2023-03-06T23:28:27.207Z,26.90
2023-03-06T23:33:30.988Z,26.57
2023-03-06T23:38:34.361Z,26.02
2023-03-06T23:43:39.589Z,28.42
2023-03-06T23:48:43.931Z,25.67
2023-03-06T23:53:48.612Z,27.20
2023-03-06T23:58:53.311Z,29.30
